sensor_id;sensor_type;location;lat;lon;timestamp;P1;durP1;ratioP1;P2;durP2;ratioP2
36441;SDS011;22470;50.824;16.284;2022-08-06T00:01:34;12.25;;;8.20;;
36441;SDS011;22470;50.824;16.284;2022-08-06T00:04:02;11.27;;;7.80;;
36441;SDS011;22470;50.824;16.284;2022-08-06T00:06:29;13.40;;;8.60;;
36441;SDS011;22470;50.824;16.284;2022-08-06T00:08:56;16.83;;;9.70;;
36441;SDS011;22470;50.824;16.284;2022-08-06T00:11:23;14.82;;;9.68;;
36441;SDS011;22470;50.824;16.284;2022-08-06T00:13:53;14.55;;;9.07;;
36441;SDS011;22470;50.824;16.284;2022-08-06T00:16:24;12.18;;;8.43;;
36441;SDS011;22470;50.824;16.284;2022-08-06T00:19:02;13.80;;;7.63;;
36441;SDS011;22470;50.824;16.284;2022-08-06T00:21:33;11.10;;;6.50;;
36441;SDS011;22470;50.824;16.284;2022-08-06T00:24:08;10.15;;;6.20;;
36441;SDS011;22470;50.824;16.284;2022-08-06T00:26:50;11.00;;;7.05;;
36441;SDS011;22470;50.824;16.284;2022-08-06T00:29:37;11.77;;;6.97;;
36441;SDS011;22470;50.824;16.284;2022-08-06T00:32:16;11.95;;;8.10;;
36441;SDS011;22470;50.824;16.284;2022-08-06T00:34:53;11.90;;;7.38;;
36441;SDS011;22470;50.824;16.284;2022-08-06T00:37:22;13.95;;;8.48;;
36441;SDS011;22470;50.824;16.284;2022-08-06T00:40:09;15.93;;;9.20;;
36441;SDS011;22470;50.824;16.284;2022-08-06T00:42:37;13.82;;;9.00;;
36441;SDS011;22470;50.824;16.284;2022-08-06T00:45:04;13.38;;;9.50;;
36441;SDS011;22470;50.824;16.284;2022-08-06T00:47:36;15.95;;;10.32;;
36441;SDS011;22470;50.824;16.284;2022-08-06T00:50:23;15.23;;;9.80;;
36441;SDS011;22470;50.824;16.284;2022-08-06T00:52:51;16.80;;;10.65;;
36441;SDS011;22470;50.824;16.284;2022-08-06T00:55:19;17.15;;;10.95;;
36441;SDS011;22470;50.824;16.284;2022-08-06T00:58:02;15.70;;;10.07;;
36441;SDS011;22470;50.824;16.284;2022-08-06T01:00:31;17.20;;;11.18;;
36441;SDS011;22470;50.824;16.284;2022-08-06T01:03:06;15.70;;;10.18;;
36441;SDS011;22470;50.824;16.284;2022-08-06T01:05:53;17.83;;;10.90;;
36441;SDS011;22470;50.824;16.284;2022-08-06T01:08:41;15.77;;;9.88;;
36441;SDS011;22470;50.824;16.284;2022-08-06T01:11:11;14.45;;;10.55;;
36441;SDS011;22470;50.824;16.284;2022-08-06T01:13:38;13.13;;;9.05;;
36441;SDS011;22470;50.824;16.284;2022-08-06T01:16:33;13.98;;;8.45;;
36441;SDS011;22470;50.824;16.284;2022-08-06T01:19:48;14.65;;;9.32;;
36441;SDS011;22470;50.824;16.284;2022-08-06T01:31:01;12.57;;;6.97;;
36441;SDS011;22470;50.824;16.284;2022-08-06T01:33:41;9.38;;;4.80;;
36441;SDS011;22470;50.824;16.284;2022-08-06T01:36:17;8.50;;;3.35;;
36441;SDS011;22470;50.824;16.284;2022-08-06T01:38:54;5.03;;;2.35;;
36441;SDS011;22470;50.824;16.284;2022-08-06T01:41:29;5.15;;;1.65;;
36441;SDS011;22470;50.824;16.284;2022-08-06T01:44:27;4.13;;;1.73;;
36441;SDS011;22470;50.824;16.284;2022-08-06T01:46:57;2.92;;;1.63;;
36441;SDS011;22470;50.824;16.284;2022-08-06T01:49:31;8.50;;;1.73;;
36441;SDS011;22470;50.824;16.284;2022-08-06T01:52:20;3.80;;;1.48;;
36441;SDS011;22470;50.824;16.284;2022-08-06T01:54:56;4.68;;;1.67;;
36441;SDS011;22470;50.824;16.284;2022-08-06T01:57:24;3.42;;;1.35;;
36441;SDS011;22470;50.824;16.284;2022-08-06T02:00:14;3.42;;;1.50;;
36441;SDS011;22470;50.824;16.284;2022-08-06T02:02:45;1.98;;;1.10;;
36441;SDS011;22470;50.824;16.284;2022-08-06T02:05:17;4.03;;;1.45;;
36441;SDS011;22470;50.824;16.284;2022-08-06T02:07:46;2.33;;;1.30;;
36441;SDS011;22470;50.824;16.284;2022-08-06T02:10:37;1.80;;;1.33;;
36441;SDS011;22470;50.824;16.284;2022-08-06T02:13:06;2.97;;;1.40;;
36441;SDS011;22470;50.824;16.284;2022-08-06T02:15:40;3.05;;;1.42;;
36441;SDS011;22470;50.824;16.284;2022-08-06T02:18:26;3.67;;;1.23;;
36441;SDS011;22470;50.824;16.284;2022-08-06T02:21:02;1.95;;;1.30;;
36441;SDS011;22470;50.824;16.284;2022-08-06T02:23:53;1.40;;;1.10;;
36441;SDS011;22470;50.824;16.284;2022-08-06T02:26:21;2.10;;;1.00;;
36441;SDS011;22470;50.824;16.284;2022-08-06T02:28:57;3.20;;;1.27;;
36441;SDS011;22470;50.824;16.284;2022-08-06T02:31:26;4.72;;;1.10;;
36441;SDS011;22470;50.824;16.284;2022-08-06T02:34:12;1.15;;;0.70;;
36441;SDS011;22470;50.824;16.284;2022-08-06T02:36:44;1.40;;;0.77;;
36441;SDS011;22470;50.824;16.284;2022-08-06T02:39:35;1.40;;;0.88;;
36441;SDS011;22470;50.824;16.284;2022-08-06T02:42:23;1.92;;;0.90;;
36441;SDS011;22470;50.824;16.284;2022-08-06T02:45:02;2.50;;;1.13;;
36441;SDS011;22470;50.824;16.284;2022-08-06T02:50:41;3.85;;;1.60;;
36441;SDS011;22470;50.824;16.284;2022-08-06T02:53:17;3.10;;;1.52;;
36441;SDS011;22470;50.824;16.284;2022-08-06T02:56:19;2.20;;;1.38;;
36441;SDS011;22470;50.824;16.284;2022-08-06T02:58:53;4.93;;;1.50;;
36441;SDS011;22470;50.824;16.284;2022-08-06T03:01:27;3.45;;;1.30;;
36441;SDS011;22470;50.824;16.284;2022-08-06T03:04:09;2.35;;;1.42;;
36441;SDS011;22470;50.824;16.284;2022-08-06T03:06:41;3.83;;;1.50;;
36441;SDS011;22470;50.824;16.284;2022-08-06T03:09:12;2.10;;;1.50;;
36441;SDS011;22470;50.824;16.284;2022-08-06T03:11:42;2.75;;;1.50;;
36441;SDS011;22470;50.824;16.284;2022-08-06T03:14:14;3.63;;;1.83;;
36441;SDS011;22470;50.824;16.284;2022-08-06T03:17:02;3.90;;;1.60;;
36441;SDS011;22470;50.824;16.284;2022-08-06T03:19:33;4.85;;;2.38;;
36441;SDS011;22470;50.824;16.284;2022-08-06T03:22:21;6.05;;;1.30;;
36441;SDS011;22470;50.824;16.284;2022-08-06T03:27:35;4.15;;;1.70;;
36441;SDS011;22470;50.824;16.284;2022-08-06T03:30:13;3.95;;;1.60;;
36441;SDS011;22470;50.824;16.284;2022-08-06T03:33:02;1.35;;;1.25;;
36441;SDS011;22470;50.824;16.284;2022-08-06T03:35:54;5.88;;;1.65;;
36441;SDS011;22470;50.824;16.284;2022-08-06T03:38:23;4.68;;;1.48;;
36441;SDS011;22470;50.824;16.284;2022-08-06T03:40:55;3.87;;;2.20;;
36441;SDS011;22470;50.824;16.284;2022-08-06T03:43:24;5.82;;;1.70;;
36441;SDS011;22470;50.824;16.284;2022-08-06T03:45:56;4.80;;;1.85;;
36441;SDS011;22470;50.824;16.284;2022-08-06T03:48:28;2.97;;;1.80;;
36441;SDS011;22470;50.824;16.284;2022-08-06T03:51:05;5.55;;;2.83;;
36441;SDS011;22470;50.824;16.284;2022-08-06T03:53:38;5.47;;;2.10;;
36441;SDS011;22470;50.824;16.284;2022-08-06T03:56:16;6.28;;;2.35;;
36441;SDS011;22470;50.824;16.284;2022-08-06T03:58:54;6.07;;;2.35;;
36441;SDS011;22470;50.824;16.284;2022-08-06T04:01:31;4.32;;;2.30;;
36441;SDS011;22470;50.824;16.284;2022-08-06T04:04:16;6.95;;;2.30;;
36441;SDS011;22470;50.824;16.284;2022-08-06T04:06:56;5.55;;;2.03;;
36441;SDS011;22470;50.824;16.284;2022-08-06T04:09:29;5.80;;;2.00;;
36441;SDS011;22470;50.824;16.284;2022-08-06T04:12:17;3.25;;;2.15;;
36441;SDS011;22470;50.824;16.284;2022-08-06T04:15:06;5.50;;;2.83;;
36441;SDS011;22470;50.824;16.284;2022-08-06T04:17:35;4.25;;;1.95;;
36441;SDS011;22470;50.824;16.284;2022-08-06T04:20:09;4.22;;;1.83;;
36441;SDS011;22470;50.824;16.284;2022-08-06T04:22:37;6.38;;;2.13;;
36441;SDS011;22470;50.824;16.284;2022-08-06T04:25:26;3.90;;;1.98;;
36441;SDS011;22470;50.824;16.284;2022-08-06T04:28:02;3.97;;;2.28;;
36441;SDS011;22470;50.824;16.284;2022-08-06T04:30:33;4.78;;;2.72;;
36441;SDS011;22470;50.824;16.284;2022-08-06T04:33:04;3.20;;;1.63;;
36441;SDS011;22470;50.824;16.284;2022-08-06T04:35:37;5.32;;;2.00;;
36441;SDS011;22470;50.824;16.284;2022-08-06T04:38:26;4.13;;;1.85;;
36441;SDS011;22470;50.824;16.284;2022-08-06T04:40:57;4.30;;;2.00;;
36441;SDS011;22470;50.824;16.284;2022-08-06T04:43:29;6.00;;;2.67;;
36441;SDS011;22470;50.824;16.284;2022-08-06T04:46:17;3.53;;;1.77;;
36441;SDS011;22470;50.824;16.284;2022-08-06T04:48:46;6.07;;;2.00;;
36441;SDS011;22470;50.824;16.284;2022-08-06T04:51:22;3.03;;;2.28;;
36441;SDS011;22470;50.824;16.284;2022-08-06T04:54:10;5.57;;;2.10;;
36441;SDS011;22470;50.824;16.284;2022-08-06T04:56:39;3.90;;;2.33;;
36441;SDS011;22470;50.824;16.284;2022-08-06T04:59:16;4.97;;;2.08;;
36441;SDS011;22470;50.824;16.284;2022-08-06T05:01:45;4.32;;;2.08;;
36441;SDS011;22470;50.824;16.284;2022-08-06T05:04:29;5.18;;;2.42;;
36441;SDS011;22470;50.824;16.284;2022-08-06T05:07:42;3.20;;;2.50;;
36441;SDS011;22470;50.824;16.284;2022-08-06T05:09:55;4.13;;;2.35;;
36441;SDS011;22470;50.824;16.284;2022-08-06T05:15:05;3.03;;;2.30;;
36441;SDS011;22470;50.824;16.284;2022-08-06T05:17:53;5.53;;;2.60;;
36441;SDS011;22470;50.824;16.284;2022-08-06T05:20:26;4.65;;;2.70;;
36441;SDS011;22470;50.824;16.284;2022-08-06T05:23:00;6.85;;;3.20;;
36441;SDS011;22470;50.824;16.284;2022-08-06T05:25:46;7.07;;;2.97;;
36441;SDS011;22470;50.824;16.284;2022-08-06T05:28:22;4.78;;;2.70;;
36441;SDS011;22470;50.824;16.284;2022-08-06T05:30:53;6.32;;;3.13;;
36441;SDS011;22470;50.824;16.284;2022-08-06T05:35:55;7.68;;;3.53;;
36441;SDS011;22470;50.824;16.284;2022-08-06T05:38:31;7.10;;;3.17;;
36441;SDS011;22470;50.824;16.284;2022-08-06T05:41:03;5.28;;;2.97;;
36441;SDS011;22470;50.824;16.284;2022-08-06T05:43:36;5.72;;;3.33;;
36441;SDS011;22470;50.824;16.284;2022-08-06T05:46:24;5.22;;;3.17;;
36441;SDS011;22470;50.824;16.284;2022-08-06T05:48:54;4.68;;;2.88;;
36441;SDS011;22470;50.824;16.284;2022-08-06T05:57:19;6.28;;;3.00;;
36441;SDS011;22470;50.824;16.284;2022-08-06T06:00:08;6.03;;;3.35;;
36441;SDS011;22470;50.824;16.284;2022-08-06T06:02:58;5.25;;;3.30;;
36441;SDS011;22470;50.824;16.284;2022-08-06T06:05:29;6.68;;;2.97;;
36441;SDS011;22470;50.824;16.284;2022-08-06T06:08:17;5.25;;;3.40;;
36441;SDS011;22470;50.824;16.284;2022-08-06T06:11:05;4.65;;;3.10;;
36441;SDS011;22470;50.824;16.284;2022-08-06T06:13:33;5.57;;;3.47;;
36441;SDS011;22470;50.824;16.284;2022-08-06T06:16:24;5.60;;;3.17;;
36441;SDS011;22470;50.824;16.284;2022-08-06T06:21:48;7.80;;;4.00;;
36441;SDS011;22470;50.824;16.284;2022-08-06T06:27:14;6.78;;;3.30;;
36441;SDS011;22470;50.824;16.284;2022-08-06T06:30:06;7.00;;;3.33;;
36441;SDS011;22470;50.824;16.284;2022-08-06T06:33:01;6.13;;;3.00;;
36441;SDS011;22470;50.824;16.284;2022-08-06T06:41:26;5.43;;;3.47;;
36441;SDS011;22470;50.824;16.284;2022-08-06T06:50:01;5.80;;;2.88;;
36441;SDS011;22470;50.824;16.284;2022-08-06T06:52:34;4.85;;;2.92;;
36441;SDS011;22470;50.824;16.284;2022-08-06T06:55:08;4.97;;;3.13;;
36441;SDS011;22470;50.824;16.284;2022-08-06T06:57:54;7.25;;;3.30;;
36441;SDS011;22470;50.824;16.284;2022-08-06T07:00:28;6.28;;;3.38;;
36441;SDS011;22470;50.824;16.284;2022-08-06T07:03:12;6.90;;;3.53;;
36441;SDS011;22470;50.824;16.284;2022-08-06T07:05:42;5.53;;;3.42;;
36441;SDS011;22470;50.824;16.284;2022-08-06T07:08:32;3.83;;;3.30;;
36441;SDS011;22470;50.824;16.284;2022-08-06T07:11:08;8.38;;;4.45;;
36441;SDS011;22470;50.824;16.284;2022-08-06T07:13:36;6.45;;;3.40;;
36441;SDS011;22470;50.824;16.284;2022-08-06T07:16:14;6.35;;;4.60;;
36441;SDS011;22470;50.824;16.284;2022-08-06T07:19:01;8.73;;;4.10;;
36441;SDS011;22470;50.824;16.284;2022-08-06T07:21:31;5.57;;;3.95;;
36441;SDS011;22470;50.824;16.284;2022-08-06T07:23:59;6.22;;;4.35;;
36441;SDS011;22470;50.824;16.284;2022-08-06T07:26:47;8.23;;;3.95;;
36441;SDS011;22470;50.824;16.284;2022-08-06T07:29:17;7.55;;;4.07;;
36441;SDS011;22470;50.824;16.284;2022-08-06T07:32:07;8.13;;;4.10;;
36441;SDS011;22470;50.824;16.284;2022-08-06T07:34:55;5.85;;;3.88;;
36441;SDS011;22470;50.824;16.284;2022-08-06T07:37:25;6.28;;;4.15;;
36441;SDS011;22470;50.824;16.284;2022-08-06T07:40:05;6.70;;;3.83;;
36441;SDS011;22470;50.824;16.284;2022-08-06T07:42:36;6.35;;;4.03;;
36441;SDS011;22470;50.824;16.284;2022-08-06T07:45:04;7.32;;;4.15;;
36441;SDS011;22470;50.824;16.284;2022-08-06T07:47:42;5.32;;;3.60;;
36441;SDS011;22470;50.824;16.284;2022-08-06T07:50:22;8.88;;;4.20;;
36441;SDS011;22470;50.824;16.284;2022-08-06T07:52:51;6.25;;;4.38;;
36441;SDS011;22470;50.824;16.284;2022-08-06T07:55:21;8.68;;;3.97;;
36441;SDS011;22470;50.824;16.284;2022-08-06T07:57:50;7.82;;;4.85;;
36441;SDS011;22470;50.824;16.284;2022-08-06T08:00:22;8.38;;;4.82;;
36441;SDS011;22470;50.824;16.284;2022-08-06T08:02:53;7.85;;;4.55;;
36441;SDS011;22470;50.824;16.284;2022-08-06T08:05:21;6.13;;;4.18;;
36441;SDS011;22470;50.824;16.284;2022-08-06T08:08:05;6.40;;;4.47;;
36441;SDS011;22470;50.824;16.284;2022-08-06T08:10:34;7.50;;;4.90;;
36441;SDS011;22470;50.824;16.284;2022-08-06T08:13:09;7.93;;;4.57;;
36441;SDS011;22470;50.824;16.284;2022-08-06T08:15:39;6.18;;;4.03;;
36441;SDS011;22470;50.824;16.284;2022-08-06T08:18:09;10.40;;;4.75;;
36441;SDS011;22470;50.824;16.284;2022-08-06T08:20:37;6.90;;;4.63;;
36441;SDS011;22470;50.824;16.284;2022-08-06T08:23:16;9.05;;;4.28;;
36441;SDS011;22470;50.824;16.284;2022-08-06T08:26:02;7.18;;;3.80;;
36441;SDS011;22470;50.824;16.284;2022-08-06T08:28:29;6.72;;;3.75;;
36441;SDS011;22470;50.824;16.284;2022-08-06T08:30:57;5.65;;;3.95;;
36441;SDS011;22470;50.824;16.284;2022-08-06T08:33:25;6.88;;;3.50;;
36441;SDS011;22470;50.824;16.284;2022-08-06T08:35:52;6.95;;;3.90;;
36441;SDS011;22470;50.824;16.284;2022-08-06T08:38:28;7.05;;;3.40;;
36441;SDS011;22470;50.824;16.284;2022-08-06T08:40:56;6.22;;;4.00;;
36441;SDS011;22470;50.824;16.284;2022-08-06T08:43:35;7.82;;;3.10;;
36441;SDS011;22470;50.824;16.284;2022-08-06T08:46:26;3.65;;;2.90;;
36441;SDS011;22470;50.824;16.284;2022-08-06T08:48:58;8.20;;;3.92;;
36441;SDS011;22470;50.824;16.284;2022-08-06T08:51:31;5.30;;;2.90;;
36441;SDS011;22470;50.824;16.284;2022-08-06T08:54:08;6.82;;;3.08;;
36441;SDS011;22470;50.824;16.284;2022-08-06T08:56:44;6.60;;;3.28;;
36441;SDS011;22470;50.824;16.284;2022-08-06T08:59:32;5.25;;;2.67;;
36441;SDS011;22470;50.824;16.284;2022-08-06T09:02:22;3.97;;;3.05;;
36441;SDS011;22470;50.824;16.284;2022-08-06T09:04:52;7.30;;;2.83;;
36441;SDS011;22470;50.824;16.284;2022-08-06T09:07:24;4.80;;;2.67;;
36441;SDS011;22470;50.824;16.284;2022-08-06T09:10:02;6.05;;;3.08;;
36441;SDS011;22470;50.824;16.284;2022-08-06T09:12:30;6.05;;;2.90;;
36441;SDS011;22470;50.824;16.284;2022-08-06T09:15:11;4.90;;;2.75;;
36441;SDS011;22470;50.824;16.284;2022-08-06T09:17:46;5.35;;;2.50;;
36441;SDS011;22470;50.824;16.284;2022-08-06T09:20:35;4.13;;;2.58;;
36441;SDS011;22470;50.824;16.284;2022-08-06T09:23:07;4.75;;;2.53;;
36441;SDS011;22470;50.824;16.284;2022-08-06T09:28:30;3.97;;;2.30;;
36441;SDS011;22470;50.824;16.284;2022-08-06T09:31:04;4.75;;;2.10;;
36441;SDS011;22470;50.824;16.284;2022-08-06T09:34:03;3.72;;;2.20;;
36441;SDS011;22470;50.824;16.284;2022-08-06T09:36:52;3.47;;;2.20;;
36441;SDS011;22470;50.824;16.284;2022-08-06T09:39:32;4.57;;;2.58;;
36441;SDS011;22470;50.824;16.284;2022-08-06T09:42:40;2.50;;;1.60;;
36441;SDS011;22470;50.824;16.284;2022-08-06T09:45:17;1.90;;;1.70;;
36441;SDS011;22470;50.824;16.284;2022-08-06T09:48:09;6.05;;;2.10;;
36441;SDS011;22470;50.824;16.284;2022-08-06T09:50:48;1.65;;;1.55;;
36441;SDS011;22470;50.824;16.284;2022-08-06T09:53:17;3.35;;;2.08;;
36441;SDS011;22470;50.824;16.284;2022-08-06T09:55:47;2.22;;;1.80;;
36441;SDS011;22470;50.824;16.284;2022-08-06T10:01:10;4.88;;;1.80;;
36441;SDS011;22470;50.824;16.284;2022-08-06T10:03:49;4.05;;;2.15;;
36441;SDS011;22470;50.824;16.284;2022-08-06T10:06:30;3.13;;;1.60;;
36441;SDS011;22470;50.824;16.284;2022-08-06T10:09:08;3.20;;;1.70;;
36441;SDS011;22470;50.824;16.284;2022-08-06T10:11:57;3.30;;;1.80;;
36441;SDS011;22470;50.824;16.284;2022-08-06T10:14:26;4.53;;;1.70;;
36441;SDS011;22470;50.824;16.284;2022-08-06T10:17:06;2.67;;;1.83;;
36441;SDS011;22470;50.824;16.284;2022-08-06T10:19:35;3.63;;;2.08;;
36441;SDS011;22470;50.824;16.284;2022-08-06T10:22:04;5.65;;;2.20;;
36441;SDS011;22470;50.824;16.284;2022-08-06T10:24:42;3.38;;;1.77;;
36441;SDS011;22470;50.824;16.284;2022-08-06T10:27:21;3.78;;;2.00;;
36441;SDS011;22470;50.824;16.284;2022-08-06T10:29:51;3.83;;;2.35;;
36441;SDS011;22470;50.824;16.284;2022-08-06T10:32:26;3.97;;;2.00;;
36441;SDS011;22470;50.824;16.284;2022-08-06T10:35:03;4.97;;;2.25;;
36441;SDS011;22470;50.824;16.284;2022-08-06T10:37:41;4.72;;;2.00;;
36441;SDS011;22470;50.824;16.284;2022-08-06T10:40:15;3.05;;;1.90;;
36441;SDS011;22470;50.824;16.284;2022-08-06T10:42:57;3.40;;;2.00;;
36441;SDS011;22470;50.824;16.284;2022-08-06T10:45:29;6.35;;;2.30;;
36441;SDS011;22470;50.824;16.284;2022-08-06T10:48:14;5.97;;;2.30;;
36441;SDS011;22470;50.824;16.284;2022-08-06T10:51:03;3.50;;;2.00;;
36441;SDS011;22470;50.824;16.284;2022-08-06T10:53:32;3.42;;;2.00;;
36441;SDS011;22470;50.824;16.284;2022-08-06T10:56:20;2.92;;;1.75;;
36441;SDS011;22470;50.824;16.284;2022-08-06T10:58:57;4.63;;;2.13;;
36441;SDS011;22470;50.824;16.284;2022-08-06T11:04:33;5.38;;;1.70;;
36441;SDS011;22470;50.824;16.284;2022-08-06T11:13:25;4.47;;;2.28;;
36441;SDS011;22470;50.824;16.284;2022-08-06T11:16:26;4.35;;;2.40;;
36441;SDS011;22470;50.824;16.284;2022-08-06T11:18:58;4.10;;;2.30;;
36441;SDS011;22470;50.824;16.284;2022-08-06T11:24:23;4.68;;;2.40;;
36441;SDS011;22470;50.824;16.284;2022-08-06T11:26:51;4.78;;;2.75;;
36441;SDS011;22470;50.824;16.284;2022-08-06T11:29:27;6.07;;;2.88;;
36441;SDS011;22470;50.824;16.284;2022-08-06T11:33:00;4.53;;;2.88;;
36441;SDS011;22470;50.824;16.284;2022-08-06T11:38:11;5.60;;;2.58;;
36441;SDS011;22470;50.824;16.284;2022-08-06T11:40:52;4.20;;;2.33;;
36441;SDS011;22470;50.824;16.284;2022-08-06T11:46:34;2.97;;;1.48;;
36441;SDS011;22470;50.824;16.284;2022-08-06T11:49:12;2.92;;;1.50;;
36441;SDS011;22470;50.824;16.284;2022-08-06T11:55:07;5.78;;;1.70;;
36441;SDS011;22470;50.824;16.284;2022-08-06T11:57:48;6.30;;;1.60;;
36441;SDS011;22470;50.824;16.284;2022-08-06T12:00:18;5.32;;;1.92;;
36441;SDS011;22470;50.824;16.284;2022-08-06T12:13:54;8.48;;;3.65;;
36441;SDS011;22470;50.824;16.284;2022-08-06T12:16:42;5.28;;;2.53;;
36441;SDS011;22470;50.824;16.284;2022-08-06T12:19:19;3.90;;;2.03;;
36441;SDS011;22470;50.824;16.284;2022-08-06T12:21:51;4.43;;;1.60;;
36441;SDS011;22470;50.824;16.284;2022-08-06T12:24:23;4.43;;;1.33;;
36441;SDS011;22470;50.824;16.284;2022-08-06T12:27:11;2.42;;;0.88;;
36441;SDS011;22470;50.824;16.284;2022-08-06T12:29:39;1.88;;;0.93;;
36441;SDS011;22470;50.824;16.284;2022-08-06T12:32:27;2.15;;;1.00;;
36441;SDS011;22470;50.824;16.284;2022-08-06T12:35:00;3.20;;;1.20;;
36441;SDS011;22470;50.824;16.284;2022-08-06T12:37:37;2.85;;;1.40;;
36441;SDS011;22470;50.824;16.284;2022-08-06T12:40:14;1.27;;;0.93;;
36441;SDS011;22470;50.824;16.284;2022-08-06T12:42:44;3.17;;;1.30;;
36441;SDS011;22470;50.824;16.284;2022-08-06T12:45:21;6.10;;;1.27;;
36441;SDS011;22470;50.824;16.284;2022-08-06T12:48:09;2.80;;;1.60;;
36441;SDS011;22470;50.824;16.284;2022-08-06T12:50:39;4.40;;;1.80;;
36441;SDS011;22470;50.824;16.284;2022-08-06T12:55:50;3.95;;;1.75;;
36441;SDS011;22470;50.824;16.284;2022-08-06T12:58:35;3.30;;;1.73;;
36441;SDS011;22470;50.824;16.284;2022-08-06T13:01:13;2.90;;;1.60;;
36441;SDS011;22470;50.824;16.284;2022-08-06T13:04:04;2.97;;;1.05;;
36441;SDS011;22470;50.824;16.284;2022-08-06T13:06:35;5.60;;;1.33;;
36441;SDS011;22470;50.824;16.284;2022-08-06T13:09:06;2.85;;;1.63;;
36441;SDS011;22470;50.824;16.284;2022-08-06T13:11:36;1.65;;;1.23;;
36441;SDS011;22470;50.824;16.284;2022-08-06T13:14:13;1.38;;;1.20;;
36441;SDS011;22470;50.824;16.284;2022-08-06T13:16:45;4.57;;;1.02;;
36441;SDS011;22470;50.824;16.284;2022-08-06T13:19:22;1.77;;;1.10;;
36441;SDS011;22470;50.824;16.284;2022-08-06T13:22:05;2.88;;;1.00;;
36441;SDS011;22470;50.824;16.284;2022-08-06T13:24:32;3.03;;;1.38;;
36441;SDS011;22470;50.824;16.284;2022-08-06T13:27:01;2.45;;;1.00;;
36441;SDS011;22470;50.824;16.284;2022-08-06T13:29:34;1.70;;;0.90;;
36441;SDS011;22470;50.824;16.284;2022-08-06T13:32:25;3.10;;;1.00;;
36441;SDS011;22470;50.824;16.284;2022-08-06T13:35:00;1.85;;;0.90;;
36441;SDS011;22470;50.824;16.284;2022-08-06T13:40:35;4.35;;;1.83;;
36441;SDS011;22470;50.824;16.284;2022-08-06T13:43:17;2.58;;;1.13;;
36441;SDS011;22470;50.824;16.284;2022-08-06T13:46:06;2.45;;;1.15;;
36441;SDS011;22470;50.824;16.284;2022-08-06T13:48:53;1.83;;;1.10;;
36441;SDS011;22470;50.824;16.284;2022-08-06T13:51:24;4.78;;;1.23;;
36441;SDS011;22470;50.824;16.284;2022-08-06T13:53:57;3.50;;;1.25;;
36441;SDS011;22470;50.824;16.284;2022-08-06T13:56:39;1.73;;;1.15;;
36441;SDS011;22470;50.824;16.284;2022-08-06T13:59:07;4.18;;;1.25;;
36441;SDS011;22470;50.824;16.284;2022-08-06T14:01:36;1.15;;;1.00;;
36441;SDS011;22470;50.824;16.284;2022-08-06T14:04:15;2.97;;;1.15;;
36441;SDS011;22470;50.824;16.284;2022-08-06T14:09:15;3.10;;;1.25;;
36441;SDS011;22470;50.824;16.284;2022-08-06T14:11:48;2.72;;;1.20;;
36441;SDS011;22470;50.824;16.284;2022-08-06T14:14:17;2.38;;;1.17;;
36441;SDS011;22470;50.824;16.284;2022-08-06T14:16:47;2.35;;;1.08;;
36441;SDS011;22470;50.824;16.284;2022-08-06T14:19:15;0.98;;;0.80;;
36441;SDS011;22470;50.824;16.284;2022-08-06T14:22:03;2.72;;;1.15;;
36441;SDS011;22470;50.824;16.284;2022-08-06T14:24:32;1.60;;;1.05;;
36441;SDS011;22470;50.824;16.284;2022-08-06T14:27:05;4.45;;;1.00;;
36441;SDS011;22470;50.824;16.284;2022-08-06T14:29:51;3.53;;;1.55;;
36441;SDS011;22470;50.824;16.284;2022-08-06T14:32:39;2.33;;;1.08;;
36441;SDS011;22470;50.824;16.284;2022-08-06T14:35:07;1.80;;;0.90;;
36441;SDS011;22470;50.824;16.284;2022-08-06T14:37:40;1.55;;;0.73;;
36441;SDS011;22470;50.824;16.284;2022-08-06T14:40:17;1.58;;;0.90;;
36441;SDS011;22470;50.824;16.284;2022-08-06T14:42:58;1.60;;;1.10;;
36441;SDS011;22470;50.824;16.284;2022-08-06T14:45:26;2.67;;;1.00;;
36441;SDS011;22470;50.824;16.284;2022-08-06T14:48:04;2.72;;;1.00;;
36441;SDS011;22470;50.824;16.284;2022-08-06T14:50:32;1.58;;;0.88;;
36441;SDS011;22470;50.824;16.284;2022-08-06T14:53:07;3.17;;;1.00;;
36441;SDS011;22470;50.824;16.284;2022-08-06T14:55:42;2.72;;;1.10;;
36441;SDS011;22470;50.824;16.284;2022-08-06T14:58:29;2.53;;;1.40;;
36441;SDS011;22470;50.824;16.284;2022-08-06T15:00:56;1.73;;;1.13;;
36441;SDS011;22470;50.824;16.284;2022-08-06T15:03:24;1.92;;;1.02;;
36441;SDS011;22470;50.824;16.284;2022-08-06T15:05:58;2.05;;;1.20;;
36441;SDS011;22470;50.824;16.284;2022-08-06T15:08:32;1.30;;;0.90;;
36441;SDS011;22470;50.824;16.284;2022-08-06T15:11:02;3.00;;;1.10;;
36441;SDS011;22470;50.824;16.284;2022-08-06T15:13:43;1.45;;;1.00;;
36441;SDS011;22470;50.824;16.284;2022-08-06T15:16:19;4.28;;;1.10;;
36441;SDS011;22470;50.824;16.284;2022-08-06T15:19:07;2.67;;;0.88;;
36441;SDS011;22470;50.824;16.284;2022-08-06T15:21:54;1.67;;;0.90;;
36441;SDS011;22470;50.824;16.284;2022-08-06T15:24:25;1.05;;;0.95;;
36441;SDS011;22470;50.824;16.284;2022-08-06T15:26:53;1.67;;;0.93;;
36441;SDS011;22470;50.824;16.284;2022-08-06T15:29:21;2.97;;;1.10;;
36441;SDS011;22470;50.824;16.284;2022-08-06T15:31:49;4.20;;;1.30;;
36441;SDS011;22470;50.824;16.284;2022-08-06T15:34:16;5.45;;;1.27;;
36441;SDS011;22470;50.824;16.284;2022-08-06T15:36:52;2.45;;;1.10;;
36441;SDS011;22470;50.824;16.284;2022-08-06T15:39:32;3.47;;;1.10;;
36441;SDS011;22470;50.824;16.284;2022-08-06T15:42:20;3.15;;;1.00;;
36441;SDS011;22470;50.824;16.284;2022-08-06T15:44:50;1.50;;;0.90;;
36441;SDS011;22470;50.824;16.284;2022-08-06T15:47:19;1.63;;;1.00;;
36441;SDS011;22470;50.824;16.284;2022-08-06T15:49:58;2.80;;;1.05;;
36441;SDS011;22470;50.824;16.284;2022-08-06T15:52:31;2.40;;;1.30;;
36441;SDS011;22470;50.824;16.284;2022-08-06T15:55:03;2.13;;;1.02;;
36441;SDS011;22470;50.824;16.284;2022-08-06T15:57:45;2.30;;;1.30;;
36441;SDS011;22470;50.824;16.284;2022-08-06T16:00:34;2.22;;;1.08;;
36441;SDS011;22470;50.824;16.284;2022-08-06T16:03:04;1.85;;;0.88;;
36441;SDS011;22470;50.824;16.284;2022-08-06T16:05:34;2.45;;;1.13;;
36441;SDS011;22470;50.824;16.284;2022-08-06T16:08:23;1.70;;;0.90;;
36441;SDS011;22470;50.824;16.284;2022-08-06T16:11:06;3.33;;;2.03;;
36441;SDS011;22470;50.824;16.284;2022-08-06T16:13:36;1.60;;;1.17;;
36441;SDS011;22470;50.824;16.284;2022-08-06T16:16:05;2.90;;;1.60;;
36441;SDS011;22470;50.824;16.284;2022-08-06T16:18:33;2.28;;;1.27;;
36441;SDS011;22470;50.824;16.284;2022-08-06T16:21:14;3.10;;;1.35;;
36441;SDS011;22470;50.824;16.284;2022-08-06T16:23:42;1.52;;;0.80;;
36441;SDS011;22470;50.824;16.284;2022-08-06T16:26:24;2.17;;;1.37;;
36441;SDS011;22470;50.824;16.284;2022-08-06T16:29:12;2.92;;;1.20;;
36441;SDS011;22470;50.824;16.284;2022-08-06T16:31:39;2.05;;;1.17;;
36441;SDS011;22470;50.824;16.284;2022-08-06T16:34:17;5.88;;;1.70;;
36441;SDS011;22470;50.824;16.284;2022-08-06T16:36:55;3.72;;;1.38;;
36441;SDS011;22470;50.824;16.284;2022-08-06T16:39:25;2.10;;;1.10;;
36441;SDS011;22470;50.824;16.284;2022-08-06T16:42:13;2.67;;;1.13;;
36441;SDS011;22470;50.824;16.284;2022-08-06T16:44:40;2.03;;;1.20;;
36441;SDS011;22470;50.824;16.284;2022-08-06T16:47:27;3.13;;;1.10;;
36441;SDS011;22470;50.824;16.284;2022-08-06T16:50:14;5.35;;;1.20;;
36441;SDS011;22470;50.824;16.284;2022-08-06T16:52:53;2.45;;;0.95;;
36441;SDS011;22470;50.824;16.284;2022-08-06T16:55:41;2.83;;;1.27;;
36441;SDS011;22470;50.824;16.284;2022-08-06T16:58:11;1.63;;;1.08;;
36441;SDS011;22470;50.824;16.284;2022-08-06T17:00:58;2.67;;;1.40;;